Time;durP1;ratioP1;P1;durP2;ratioP2;P2;SDS_P1;SDS_P2;PMS_P1;PMS_P2;Temp;Humidity;BMP_temperature;BMP_pressure;BME280_temperature;BME280_humidity;BME280_pressure;Samples;Min_cycle;Max_cycle;Signal;HPM_P1;HPM_P2
2023/06/06 00:02:20;;;;;;;;;;;;;;;;;;5090588;28;20026;-60
2023/06/06 00:04:49;;;;;;;;;;;;;;;;;;5090166;28;19935;-60
2023/06/06 00:07:16;;;;;;;;;;;;;;;;;;5090760;28;19924;-60
2023/06/06 00:09:42;;;;;;;;;;;;;;;;;;5090684;28;19924;-60
2023/06/06 00:12:12;;;;;;;;;;;;;;;;;;5089989;28;20019;-60
2023/06/06 00:14:41;;;;;;;;;;;;;;;;;;5090534;28;20413;-60
2023/06/06 00:17:09;;;;;;;;;;;;;;;;;;5090091;28;19924;-60
2023/06/06 00:19:35;;;;;;;;;;;;;;;;;;5089938;28;19920;-60
2023/06/06 00:22:01;;;;;;;;;;;;;;;;;;5090369;28;20061;-60
2023/06/06 00:24:27;;;;;;;;;;;;;;;;;;5090142;28;20007;-60
2023/06/06 00:26:53;;;;;;;;;;;;;;;;;;5073062;28;19924;-60
2023/06/06 00:29:19;;;;;;;;;;;;;;;;;;5077533;28;19923;-60
2023/06/06 00:31:45;;;;;;;;;;;;;;;;;;5090465;28;19973;-60
2023/06/06 00:34:11;;;;;;;;;;;;;;;;;;5089634;28;19939;-60
2023/06/06 00:36:37;;;;;;;;;;;;;;;;;;5091983;28;19920;-60
2023/06/06 00:39:03;;;;;;;;;;;;;;;;;;5094267;28;19991;-60
2023/06/06 00:41:29;;;;;;;;;;;;;;;;;;5075283;28;19960;-60
2023/06/06 00:43:55;;;;;;;;;;;;;;;;;;5094176;28;20374;-60
2023/06/06 00:46:21;;;;;;;;;;;;;;;;;;5094113;28;19931;-60
2023/06/06 00:48:47;;;;;;;;;;;;;;;;;;5093451;28;19994;-60
2023/06/06 00:51:13;;;;;;;;;;;;;;;;;;5093887;28;19920;-60
2023/06/06 00:53:39;;;;;;;;;;;;;;;;;;5093784;28;20295;-60
2023/06/06 00:56:05;;;;;;;;;;;;;;;;;;5093520;28;19963;-60
2023/06/06 00:58:31;;;;;;;;;;;;;;;;;;5094043;28;19998;-60
2023/06/06 01:00:57;;;;;;;;;;;;;;;;;;5093846;28;19939;-59
2023/06/06 01:03:24;;;;;;;;;;;;;;;;;;5093326;28;19920;-60
2023/06/06 01:05:53;;;;;;;;;;;;;;;;;;5075315;28;19977;-60
2023/06/06 01:08:19;;;;;;;;;;;;;;;;;;5093444;28;19975;-60
2023/06/06 01:10:45;;;;;;;;;;;;;;;;;;5093256;28;19967;-60
2023/06/06 01:13:11;;;;;;;;;;;;;;;;;;5093555;28;19974;-60
2023/06/06 01:15:37;;;;;;;;;;;;;;;;;;5093718;28;19920;-60
2023/06/06 01:18:03;;;;;;;;;;;;;;;;;;5074715;28;20502;-60
2023/06/06 01:20:29;;;;;;;;;;;;;;;;;;5093454;28;20322;-60
2023/06/06 01:22:56;;;;;;;;;;;;;;;;;;5093308;28;19943;-60
2023/06/06 01:25:23;;;;;;;;;;;;;;;;;;5088508;28;19924;-61
2023/06/06 01:27:53;;;;;;;;;;;;;;;;;;5073255;28;20278;-60
2023/06/06 01:30:19;;;;;;;;;;;;;;;;;;5088836;28;19924;-60
2023/06/06 01:32:45;;;;;;;;;;;;;;;;;;5092546;28;19924;-60
2023/06/06 01:35:11;;;;;;;;;;;;;;;;;;5093269;28;19920;-60
2023/06/06 01:37:37;;;;;;;;;;;;;;;;;;5093023;28;19924;-60
2023/06/06 01:40:06;;;;;;;;;;;;;;;;;;5074299;28;19928;-60
2023/06/06 01:42:32;;;;;;;;;;;;;;;;;;5092561;28;19950;-60
2023/06/06 01:44:58;;;;;;;;;;;;;;;;;;5093087;28;19920;-60
2023/06/06 01:47:24;;;;;;;;;;;;;;;;;;5091932;28;19927;-60
2023/06/06 01:49:50;;;;;;;;;;;;;;;;;;5092388;28;19924;-60
2023/06/06 01:52:16;;;;;;;;;;;;;;;;;;5074570;28;19924;-60
2023/06/06 01:54:43;;;;;;;;;;;;;;;;;;5092166;28;20054;-61
2023/06/06 01:57:09;;;;;;;;;;;;;;;;;;5074424;28;19982;-60
2023/06/06 01:59:36;;;;;;;;;;;;;;;;;;5092884;28;20009;-60
2023/06/06 02:02:02;;;;;;;;;;;;;;;;;;5092237;28;19931;-60
2023/06/06 02:04:28;;;;;;;;;;;;;;;;;;5092572;28;19924;-60
2023/06/06 02:06:55;;;;;;;;;;;;;;;;;;5092612;28;19943;-60
2023/06/06 02:09:21;;;;;;;;;;;;;;;;;;5091997;28;19943;-60
2023/06/06 02:11:47;;;;;;;;;;;;;;;;;;5092475;28;20295;-60
2023/06/06 02:14:15;;;;;;;;;;;;;;;;;;5092221;28;19920;-60
2023/06/06 02:16:41;;;;;;;;;;;;;;;;;;5073507;28;20409;-60
2023/06/06 02:19:07;;;;;;;;;;;;;;;;;;5092290;28;19919;-59
2023/06/06 02:21:33;;;;;;;;;;;;;;;;;;5092054;28;19920;-59
2023/06/06 02:23:59;;;;;;;;;;;;;;;;;;5091567;28;19932;-60
2023/06/06 02:26:25;;;;;;;;;;;;;;;;;;5079476;28;19925;-60
2023/06/06 02:28:51;;;;;;;;;;;;;;;;;;5075452;28;19927;-59
2023/06/06 02:31:21;;;;;;;;;;;;;;;;;;5091708;28;19986;-60
2023/06/06 02:33:47;;;;;;;;;;;;;;;;;;5091827;28;19920;-60
2023/06/06 02:36:14;;;;;;;;;;;;;;;;;;5073724;28;20323;-60
2023/06/06 02:38:40;;;;;;;;;;;;;;;;;;5091398;28;19928;-60
2023/06/06 02:41:06;;;;;;;;;;;;;;;;;;5091930;28;19974;-60
2023/06/06 02:43:32;;;;;;;;;;;;;;;;;;5091827;28;19920;-60
2023/06/06 02:45:58;;;;;;;;;;;;;;;;;;5072986;28;19920;-62
2023/06/06 02:48:24;;;;;;;;;;;;;;;;;;5091719;28;19970;-61
2023/06/06 02:50:50;;;;;;;;;;;;;;;;;;5091228;28;19924;-60
2023/06/06 02:53:17;;;;;;;;;;;;;;;;;;5090898;28;19980;-60
2023/06/06 02:55:43;;;;;;;;;;;;;;;;;;5073509;28;20407;-60
2023/06/06 02:58:09;;;;;;;;;;;;;;;;;;5091249;28;19924;-60
2023/06/06 03:00:36;;;;;;;;;;;;;;;;;;5090892;28;19924;-60
2023/06/06 03:03:02;;;;;;;;;;;;;;;;;;5091485;28;20318;-60
2023/06/06 03:05:29;;;;;;;;;;;;;;;;;;5091409;28;20010;-60
2023/06/06 03:07:56;;;;;;;;;;;;;;;;;;5090776;28;19924;-60
2023/06/06 03:10:22;;;;;;;;;;;;;;;;;;5091199;28;19927;-60
2023/06/06 03:12:48;;;;;;;;;;;;;;;;;;5091224;28;19920;-60
2023/06/06 03:15:14;;;;;;;;;;;;;;;;;;5090982;28;19942;-60
2023/06/06 03:17:40;;;;;;;;;;;;;;;;;;5091098;28;19928;-60
2023/06/06 03:20:09;;;;;;;;;;;;;;;;;;5091449;28;20366;-60
2023/06/06 03:22:35;;;;;;;;;;;;;;;;;;5090878;28;19924;-60
2023/06/06 03:25:01;;;;;;;;;;;;;;;;;;5089756;28;20007;-60
2023/06/06 03:27:27;;;;;;;;;;;;;;;;;;5070825;28;19920;-60
2023/06/06 03:29:53;;;;;;;;;;;;;;;;;;5082762;28;20268;-60
2023/06/06 03:32:21;;;;;;;;;;;;;;;;;;5089566;28;22559;-60
2023/06/06 03:34:48;;;;;;;;;;;;;;;;;;5090860;28;19920;-60
2023/06/06 03:37:14;;;;;;;;;;;;;;;;;;5090885;28;20274;-60
2023/06/06 03:39:40;;;;;;;;;;;;;;;;;;5090598;28;20023;-60
2023/06/06 03:42:07;;;;;;;;;;;;;;;;;;5091050;28;19931;-60
2023/06/06 03:44:33;;;;;;;;;;;;;;;;;;5090894;28;19924;-60
2023/06/06 03:46:59;;;;;;;;;;;;;;;;;;5090241;28;19993;-60
2023/06/06 03:49:25;;;;;;;;;;;;;;;;;;5090765;28;19924;-60
2023/06/06 03:51:51;;;;;;;;;;;;;;;;;;5090772;28;19970;-60
2023/06/06 03:54:17;;;;;;;;;;;;;;;;;;5090001;28;19924;-60
2023/06/06 03:56:43;;;;;;;;;;;;;;;;;;5090731;28;19985;-60
2023/06/06 03:59:12;;;;;;;;;;;;;;;;;;5090631;28;19924;-60
2023/06/06 04:01:40;;;;;;;;;;;;;;;;;;5090231;28;19924;-60
2023/06/06 04:04:06;;;;;;;;;;;;;;;;;;5090631;28;20474;-60
2023/06/06 04:06:32;;;;;;;;;;;;;;;;;;5090315;28;20508;-60
2023/06/06 04:08:58;;;;;;;;;;;;;;;;;;5090152;28;19927;-60
2023/06/06 04:11:25;;;;;;;;;;;;;;;;;;5091904;28;20028;-60
2023/06/06 04:13:51;;;;;;;;;;;;;;;;;;5094494;28;20504;-60
2023/06/06 04:16:17;;;;;;;;;;;;;;;;;;5094234;28;19928;-60
2023/06/06 04:18:43;;;;;;;;;;;;;;;;;;5094558;28;20420;-60
2023/06/06 04:21:09;;;;;;;;;;;;;;;;;;5094871;28;20042;-60
2023/06/06 04:23:35;;;;;;;;;;;;;;;;;;5093996;28;19927;-60
2023/06/06 04:26:01;;;;;;;;;;;;;;;;;;5084634;28;19937;-60
2023/06/06 04:28:27;;;;;;;;;;;;;;;;;;5056279;28;20439;-60
2023/06/06 04:30:54;;;;;;;;;;;;;;;;;;5093921;28;19973;-60
2023/06/06 04:33:20;;;;;;;;;;;;;;;;;;5093972;28;20449;-60
2023/06/06 04:35:46;;;;;;;;;;;;;;;;;;5094157;28;19920;-60
2023/06/06 04:38:12;;;;;;;;;;;;;;;;;;5093547;28;19978;-60
2023/06/06 04:40:39;;;;;;;;;;;;;;;;;;5094295;28;19924;-60
2023/06/06 04:43:07;;;;;;;;;;;;;;;;;;5075428;28;19920;-60
2023/06/06 04:45:34;;;;;;;;;;;;;;;;;;5093204;28;20020;-60
2023/06/06 04:48:00;;;;;;;;;;;;;;;;;;5094014;28;19924;-60
2023/06/06 04:50:29;;;;;;;;;;;;;;;;;;5093851;28;19989;-60
2023/06/06 04:52:55;;;;;;;;;;;;;;;;;;5093214;28;19927;-60
2023/06/06 04:55:21;;;;;;;;;;;;;;;;;;5093947;28;19920;-60
2023/06/06 04:57:47;;;;;;;;;;;;;;;;;;5093554;28;20379;-60
2023/06/06 05:00:14;;;;;;;;;;;;;;;;;;5075046;28;19924;-60
2023/06/06 05:02:40;;;;;;;;;;;;;;;;;;5093844;28;19924;-61
2023/06/06 05:05:09;;;;;;;;;;;;;;;;;;5093426;28;20457;-61
2023/06/06 05:07:35;;;;;;;;;;;;;;;;;;5092810;28;19924;-60
2023/06/06 05:10:01;;;;;;;;;;;;;;;;;;5093074;28;20007;-60
2023/06/06 05:12:27;;;;;;;;;;;;;;;;;;5093244;28;20011;-60
2023/06/06 05:14:53;;;;;;;;;;;;;;;;;;5092871;28;19928;-60
2023/06/06 05:17:23;;;;;;;;;;;;;;;;;;5093346;28;19928;-60
2023/06/06 05:19:49;;;;;;;;;;;;;;;;;;5075041;28;20007;-60
2023/06/06 05:22:15;;;;;;;;;;;;;;;;;;5092384;28;20011;-60
2023/06/06 05:24:41;;;;;;;;;;;;;;;;;;5092445;28;19932;-60
2023/06/06 05:27:07;;;;;;;;;;;;;;;;;;5074568;28;19929;-60
2023/06/06 05:29:33;;;;;;;;;;;;;;;;;;5081558;28;19924;-60
2023/06/06 05:31:58;;;;;;;;;;;;;;;;;;5093141;28;19924;-60
2023/06/06 05:34:24;;;;;;;;;;;;;;;;;;5092882;28;19963;-60
2023/06/06 05:36:50;;;;;;;;;;;;;;;;;;5088202;28;19971;-59
2023/06/06 05:39:17;;;;;;;;;;;;;;;;;;5092858;28;20643;-60
2023/06/06 05:41:43;;;;;;;;;;;;;;;;;;5092252;28;19944;-59
2023/06/06 05:44:11;;;;;;;;;;;;;;;;;;5082024;28;20476;-60
2023/06/06 05:46:37;;;;;;;;;;;;;;;;;;5081219;28;19935;-61
2023/06/06 05:49:03;;;;;;;;;;;;;;;;;;5080915;28;20452;-61
2023/06/06 05:51:30;;;;;;;;;;;;;;;;;;5082673;28;19924;-59
2023/06/06 05:53:56;;;;;;;;;;;;;;;;;;5078987;28;19973;-59
2023/06/06 05:56:22;;;;;;;;;;;;;;;;;;5082282;28;19924;-59
2023/06/06 05:58:49;;;;;;;;;;;;;;;;;;5080191;28;20031;-60
2023/06/06 06:01:15;;;;;;;;;;;;;;;;;;5078806;28;19925;-60
2023/06/06 06:03:41;;;;;;;;;;;;;;;;;;5082566;28;19988;-60
2023/06/06 06:06:08;;;;;;;;;;;;;;;;;;5079807;28;19986;-60
2023/06/06 06:08:34;;;;;;;;;;;;;;;;;;5063942;28;19920;-59
2023/06/06 06:11:00;;;;;;;;;;;;;;;;;;5080216;28;20370;-59
2023/06/06 06:13:26;;;;;;;;;;;;;;;;;;5078855;28;20137;-59
2023/06/06 06:15:52;;;;;;;;;;;;;;;;;;5080763;28;19921;-59
2023/06/06 06:18:18;;;;;;;;;;;;;;;;;;5080423;28;19996;-59
2023/06/06 06:20:44;;;;;;;;;;;;;;;;;;5080332;28;19920;-59
2023/06/06 06:23:10;;;;;;;;;;;;;;;;;;5071265;28;19931;-59
2023/06/06 06:25:36;;;;;;;;;;;;;;;;;;5080328;28;19928;-60
2023/06/06 06:28:02;;;;;;;;;;;;;;;;;;5079520;28;19926;-59
2023/06/06 06:30:28;;;;;;;;;;;;;;;;;;5080246;28;19930;-59
2023/06/06 06:32:54;;;;;;;;;;;;;;;;;;5081641;28;19927;-61
2023/06/06 06:35:20;;;;;;;;;;;;;;;;;;5057661;28;20396;-59
2023/06/06 06:37:47;;;;;;;;;;;;;;;;;;5090313;28;19932;-60
2023/06/06 06:40:13;;;;;;;;;;;;;;;;;;5090291;28;19928;-59
2023/06/06 06:42:40;;;;;;;;;;;;;;;;;;5073614;28;19924;-60
2023/06/06 06:45:06;;;;;;;;;;;;;;;;;;5085690;28;20068;-60
2023/06/06 06:47:32;;;;;;;;;;;;;;;;;;5090826;28;20018;-61
2023/06/06 06:49:58;;;;;;;;;;;;;;;;;;5081660;28;19978;-62
2023/06/06 06:52:24;;;;;;;;;;;;;;;;;;5083969;28;20009;-59
2023/06/06 06:54:54;;;;;;;;;;;;;;;;;;5077697;28;20317;-60
2023/06/06 06:57:20;;;;;;;;;;;;;;;;;;5077728;28;20363;-61
2023/06/06 06:59:46;;;;;;;;;;;;;;;;;;5080402;28;19924;-61
2023/06/06 07:02:12;;;;;;;;;;;;;;;;;;5080418;28;20254;-60
2023/06/06 07:04:39;;;;;;;;;;;;;;;;;;5078492;28;20397;-60
2023/06/06 07:07:06;;;;;;;;;;;;;;;;;;5074564;28;20301;-61
2023/06/06 07:09:31;;;;;;;;;;;;;;;;;;5071699;28;20073;-59
2023/06/06 07:11:57;;;;;;;;;;;;;;;;;;5065717;28;20014;-61
2023/06/06 07:14:25;;;;;;;;;;;;;;;;;;5079311;28;19943;-60
2023/06/06 07:16:51;;;;;;;;;;;;;;;;;;5076970;28;20322;-61
2023/06/06 07:19:17;;;;;;;;;;;;;;;;;;5077208;28;19923;-61
2023/06/06 07:21:43;;;;;;;;;;;;;;;;;;5073143;28;19925;-60
2023/06/06 07:24:09;;;;;;;;;;;;;;;;;;5041536;28;20023;-61
2023/06/06 07:26:35;;;;;;;;;;;;;;;;;;5053461;28;19986;-60
2023/06/06 07:29:01;;;;;;;;;;;;;;;;;;5060319;28;19928;-60
2023/06/06 07:31:27;;;;;;;;;;;;;;;;;;5056947;28;20049;-60
2023/06/06 07:33:55;;;;;;;;;;;;;;;;;;5057888;28;20116;-59
2023/06/06 07:36:21;;;;;;;;;;;;;;;;;;5055701;28;19921;-59
2023/06/06 07:38:47;;;;;;;;;;;;;;;;;;5062232;28;20088;-59
2023/06/06 07:41:13;;;;;;;;;;;;;;;;;;5055104;28;19924;-59
2023/06/06 07:43:39;;;;;;;;;;;;;;;;;;5059267;28;19939;-59
2023/06/06 07:46:04;;;;;;;;;;;;;;;;;;5058012;28;19931;-59
2023/06/06 07:48:30;;;;;;;;;;;;;;;;;;5060564;28;20025;-58
2023/06/06 07:50:56;;;;;;;;;;;;;;;;;;5060577;28;19974;-59
2023/06/06 07:53:23;;;;;;;;;;;;;;;;;;5058776;28;19925;-59
2023/06/06 07:55:49;;;;;;;;;;;;;;;;;;5065992;28;19989;-59
2023/06/06 07:58:15;;;;;;;;;;;;;;;;;;5055891;28;20383;-59
2023/06/06 08:00:41;;;;;;;;;;;;;;;;;;5064069;28;20367;-58
2023/06/06 08:03:09;;;;;;;;;;;;;;;;;;5067886;28;19920;-60
2023/06/06 08:05:36;;;;;;;;;;;;;;;;;;5067615;28;19924;-59
2023/06/06 08:08:02;;;;;;;;;;;;;;;;;;5067129;28;19931;-58
2023/06/06 08:10:28;;;;;;;;;;;;;;;;;;5061105;28;19920;-59
2023/06/06 08:12:54;;;;;;;;;;;;;;;;;;5050980;28;19920;-59
2023/06/06 08:15:21;;;;;;;;;;;;;;;;;;5057445;28;19924;-59
2023/06/06 08:17:47;;;;;;;;;;;;;;;;;;5053944;28;19932;-59
2023/06/06 08:20:13;;;;;;;;;;;;;;;;;;5061143;28;19955;-59
2023/06/06 08:22:40;;;;;;;;;;;;;;;;;;5065723;28;19924;-58
2023/06/06 08:25:06;;;;;;;;;;;;;;;;;;5069086;28;19947;-57
2023/06/06 08:27:32;;;;;;;;;;;;;;;;;;5077553;28;19932;-56
2023/06/06 08:29:59;;;;;;;;;;;;;;;;;;5075970;28;19920;-58
2023/06/06 08:32:25;;;;;;;;;;;;;;;;;;5082949;28;19924;-61
2023/06/06 08:34:52;;;;;;;;;;;;;;;;;;5080663;28;19931;-61
2023/06/06 08:37:21;;;;;;;;;;;;;;;;;;5075165;28;19924;-58
2023/06/06 08:39:47;;;;;;;;;;;;;;;;;;5063828;28;20461;-61
2023/06/06 08:42:13;;;;;;;;;;;;;;;;;;5086326;28;20004;-60
2023/06/06 08:44:39;;;;;;;;;;;;;;;;;;5074380;28;19927;-59
2023/06/06 08:47:05;;;;;;;;;;;;;;;;;;5070837;28;20282;-61
2023/06/06 08:49:34;;;;;;;;;;;;;;;;;;5078001;28;19923;-60
2023/06/06 08:52:01;;;;;;;;;;;;;;;;;;5077426;28;20019;-61
2023/06/06 08:54:27;;;;;;;;;;;;;;;;;;5081092;28;20011;-58
2023/06/06 08:56:54;;;;;;;;;;;;;;;;;;5077926;28;19963;-59
2023/06/06 08:59:20;;;;;;;;;;;;;;;;;;5062928;28;19931;-59
2023/06/06 09:01:46;;;;;;;;;;;;;;;;;;5084261;28;19928;-61
2023/06/06 09:04:15;;;;;;;;;;;;;;;;;;5082058;28;19924;-60
2023/06/06 09:06:44;;;;;;;;;;;;;;;;;;5085696;28;19974;-58
2023/06/06 09:09:09;;;;;;;;;;;;;;;;;;5080216;28;19924;-58
2023/06/06 09:11:35;;;;;;;;;;;;;;;;;;5087303;28;19927;-59
2023/06/06 09:14:01;;;;;;;;;;;;;;;;;;5086854;28;19924;-60
2023/06/06 09:16:27;;;;;;;;;;;;;;;;;;5076740;28;19924;-60
2023/06/06 09:18:53;;;;;;;;;;;;;;;;;;5077673;28;19928;-59
2023/06/06 09:21:19;;;;;;;;;;;;;;;;;;5077386;28;19982;-60
2023/06/06 09:23:46;;;;;;;;;;;;;;;;;;5069189;28;19955;-61
2023/06/06 09:26:12;;;;;;;;;;;;;;;;;;5082054;28;19951;-61
2023/06/06 09:28:38;;;;;;;;;;;;;;;;;;5090098;28;19963;-61
2023/06/06 09:31:04;;;;;;;;;;;;;;;;;;5090456;28;20003;-60
2023/06/06 09:33:32;;;;;;;;;;;;;;;;;;5081855;28;19931;-60
2023/06/06 09:35:58;;;;;;;;;;;;;;;;;;5081400;28;19924;-60
2023/06/06 09:38:24;;;;;;;;;;;;;;;;;;5086601;28;19930;-60
2023/06/06 09:40:50;;;;;;;;;;;;;;;;;;5083280;28;19931;-60
2023/06/06 09:43:16;;;;;;;;;;;;;;;;;;5075237;28;20010;-60
2023/06/06 09:45:42;;;;;;;;;;;;;;;;;;5077597;28;19970;-60
2023/06/06 09:48:07;;;;;;;;;;;;;;;;;;5082668;28;19964;-61
2023/06/06 09:50:33;;;;;;;;;;;;;;;;;;5075565;28;19969;-62
2023/06/06 09:52:59;;;;;;;;;;;;;;;;;;5079055;28;20366;-62
2023/06/06 09:55:25;;;;;;;;;;;;;;;;;;5077530;28;19970;-62
2023/06/06 09:57:53;;;;;;;;;;;;;;;;;;5078174;28;19942;-59
2023/06/06 10:00:20;;;;;;;;;;;;;;;;;;5072528;28;19924;-60
2023/06/06 10:02:47;;;;;;;;;;;;;;;;;;5082539;28;19924;-60
2023/06/06 10:05:13;;;;;;;;;;;;;;;;;;5085228;28;20291;-60
2023/06/06 10:07:40;;;;;;;;;;;;;;;;;;5084759;28;19972;-59
2023/06/06 10:10:06;;;;;;;;;;;;;;;;;;5079894;28;19927;-59
2023/06/06 10:12:32;;;;;;;;;;;;;;;;;;5083932;28;19924;-60
2023/06/06 10:14:57;;;;;;;;;;;;;;;;;;5079916;28;20011;-59
2023/06/06 10:17:23;;;;;;;;;;;;;;;;;;5071287;28;19928;-62
2023/06/06 10:19:49;;;;;;;;;;;;;;;;;;5080474;28;19924;-61
2023/06/06 10:22:15;;;;;;;;;;;;;;;;;;5084922;28;19988;-59
2023/06/06 10:24:41;;;;;;;;;;;;;;;;;;5074508;28;19967;-60
2023/06/06 10:27:07;;;;;;;;;;;;;;;;;;5083494;28;20011;-61
2023/06/06 10:29:33;;;;;;;;;;;;;;;;;;5079674;28;19935;-61
2023/06/06 10:31:59;;;;;;;;;;;;;;;;;;5086331;28;19928;-61
2023/06/06 10:34:25;;;;;;;;;;;;;;;;;;5082099;28;19928;-57
2023/06/06 10:36:51;;;;;;;;;;;;;;;;;;5075941;28;19924;-60
2023/06/06 10:39:17;;;;;;;;;;;;;;;;;;5087649;28;20486;-61
2023/06/06 10:41:43;;;;;;;;;;;;;;;;;;5067973;28;19928;-61
2023/06/06 10:44:09;;;;;;;;;;;;;;;;;;5089480;28;19938;-61
2023/06/06 10:46:35;;;;;;;;;;;;;;;;;;5089722;28;19985;-61
2023/06/06 10:49:03;;;;;;;;;;;;;;;;;;5090163;28;20027;-60
2023/06/06 10:51:29;;;;;;;;;;;;;;;;;;5088970;28;20799;-61
2023/06/06 10:53:55;;;;;;;;;;;;;;;;;;5087008;28;19974;-61
2023/06/06 10:56:21;;;;;;;;;;;;;;;;;;5089985;28;20343;-61
2023/06/06 10:58:47;;;;;;;;;;;;;;;;;;5089680;28;19928;-61
2023/06/06 11:01:13;;;;;;;;;;;;;;;;;;5088434;28;20393;-61
2023/06/06 11:03:39;;;;;;;;;;;;;;;;;;5073382;28;19920;-61
2023/06/06 11:06:05;;;;;;;;;;;;;;;;;;5081921;28;19924;-61
2023/06/06 11:08:31;;;;;;;;;;;;;;;;;;5090114;28;19973;-61
2023/06/06 11:10:57;;;;;;;;;;;;;;;;;;5089458;28;19928;-61
2023/06/06 11:13:23;;;;;;;;;;;;;;;;;;5087902;28;19920;-61
2023/06/06 11:15:49;;;;;;;;;;;;;;;;;;5084393;28;19932;-61
2023/06/06 11:18:14;;;;;;;;;;;;;;;;;;5078478;28;19935;-61
2023/06/06 11:20:40;;;;;;;;;;;;;;;;;;5071865;28;19979;-61
2023/06/06 11:23:08;;;;;;;;;;;;;;;;;;5082591;28;19946;-60
2023/06/06 11:25:38;;;;;;;;;;;;;;;;;;5083367;28;19928;-61
2023/06/06 11:28:04;;;;;;;;;;;;;;;;;;5079645;28;20007;-62
2023/06/06 11:30:30;;;;;;;;;;;;;;;;;;5089674;28;20429;-61
2023/06/06 11:32:56;;;;;;;;;;;;;;;;;;5088899;28;19947;-62
2023/06/06 11:35:23;;;;;;;;;;;;;;;;;;5089137;28;19920;-64
2023/06/06 11:37:49;;;;;;;;;;;;;;;;;;5068658;28;20433;-63
2023/06/06 11:40:15;;;;;;;;;;;;;;;;;;5071022;28;19924;-63
2023/06/06 11:42:42;;;;;;;;;;;;;;;;;;5070989;28;20508;-62
2023/06/06 11:45:08;;;;;;;;;;;;;;;;;;5089866;28;19923;-62
2023/06/06 11:47:34;;;;;;;;;;;;;;;;;;5087532;28;19971;-62
2023/06/06 11:50:00;;;;;;;;;;;;;;;;;;5064369;28;19981;-62
2023/06/06 11:52:26;;;;;;;;;;;;;;;;;;5086188;28;19931;-62
2023/06/06 11:54:53;;;;;;;;;;;;;;;;;;5088671;28;19973;-62
2023/06/06 11:57:19;;;;;;;;;;;;;;;;;;5088592;28;19984;-62
2023/06/06 11:59:45;;;;;;;;;;;;;;;;;;5071469;28;19920;-62
2023/06/06 12:02:11;;;;;;;;;;;;;;;;;;5082833;28;20030;-62
2023/06/06 12:04:37;;;;;;;;;;;;;;;;;;5077524;28;20119;-62
2023/06/06 12:07:05;;;;;;;;;;;;;;;;;;5082865;28;20005;-62
2023/06/06 12:09:32;;;;;;;;;;;;;;;;;;5089409;28;20588;-62
2023/06/06 12:11:59;;;;;;;;;;;;;;;;;;5089375;28;19954;-62
2023/06/06 12:14:25;;;;;;;;;;;;;;;;;;5076494;28;19924;-63
2023/06/06 12:16:51;;;;;;;;;;;;;;;;;;5074784;28;19927;-62
2023/06/06 12:19:17;;;;;;;;;;;;;;;;;;5074275;28;19928;-62
2023/06/06 12:21:43;;;;;;;;;;;;;;;;;;5075668;28;19921;-62
2023/06/06 12:24:09;;;;;;;;;;;;;;;;;;5082837;28;20508;-62
2023/06/06 12:26:35;;;;;;;;;;;;;;;;;;5067724;28;19931;-62
2023/06/06 12:29:01;;;;;;;;;;;;;;;;;;5088157;28;20362;-62
2023/06/06 12:31:30;;;;;;;;;;;;;;;;;;5088093;28;19962;-63
2023/06/06 12:33:56;;;;;;;;;;;;;;;;;;5093431;28;20341;-62
2023/06/06 12:36:24;;;;;;;;;;;;;;;;;;5092568;28;19931;-62
2023/06/06 12:38:50;;;;;;;;;;;;;;;;;;5091304;28;20022;-62
2023/06/06 12:41:16;;;;;;;;;;;;;;;;;;5086824;28;20006;-63
2023/06/06 12:43:42;;;;;;;;;;;;;;;;;;5089657;28;20011;-62
2023/06/06 12:46:08;;;;;;;;;;;;;;;;;;5091685;28;20016;-63
2023/06/06 12:48:34;;;;;;;;;;;;;;;;;;5083676;28;19924;-62
2023/06/06 12:51:00;;;;;;;;;;;;;;;;;;5081780;28;19978;-62
2023/06/06 12:53:26;;;;;;;;;;;;;;;;;;5086604;28;20013;-62
2023/06/06 12:55:52;;;;;;;;;;;;;;;;;;5087559;28;19927;-62
2023/06/06 12:58:19;;;;;;;;;;;;;;;;;;5088254;28;19928;-62
2023/06/06 13:00:45;;;;;;;;;;;;;;;;;;5081304;28;19931;-62
2023/06/06 13:03:11;;;;;;;;;;;;;;;;;;5083914;28;19928;-61
2023/06/06 13:05:37;;;;;;;;;;;;;;;;;;5090379;28;19928;-62
2023/06/06 13:08:03;;;;;;;;;;;;;;;;;;5087837;28;19928;-61
2023/06/06 13:10:29;;;;;;;;;;;;;;;;;;5089844;28;19926;-62
2023/06/06 13:12:55;;;;;;;;;;;;;;;;;;5091664;28;20381;-61
2023/06/06 13:15:21;;;;;;;;;;;;;;;;;;5077051;28;19924;-63
2023/06/06 13:17:47;;;;;;;;;;;;;;;;;;5081616;28;19989;-63
2023/06/06 13:20:14;;;;;;;;;;;;;;;;;;5082601;28;19920;-62
2023/06/06 13:22:40;;;;;;;;;;;;;;;;;;5076639;28;19928;-62
2023/06/06 13:25:07;;;;;;;;;;;;;;;;;;5073298;28;19976;-62
2023/06/06 13:27:33;;;;;;;;;;;;;;;;;;5083636;28;20709;-63
2023/06/06 13:29:59;;;;;;;;;;;;;;;;;;5072227;28;19928;-63
2023/06/06 13:32:25;;;;;;;;;;;;;;;;;;5092226;28;19927;-64
2023/06/06 13:34:51;;;;;;;;;;;;;;;;;;5092601;28;19920;-62
2023/06/06 13:37:17;;;;;;;;;;;;;;;;;;5092031;28;19924;-62
2023/06/06 13:39:43;;;;;;;;;;;;;;;;;;5074937;28;20321;-62
2023/06/06 13:42:09;;;;;;;;;;;;;;;;;;5092567;28;19946;-62
2023/06/06 13:44:35;;;;;;;;;;;;;;;;;;5091181;28;19923;-62
2023/06/06 13:47:02;;;;;;;;;;;;;;;;;;5092753;28;20011;-62
2023/06/06 13:49:29;;;;;;;;;;;;;;;;;;5087988;28;19929;-63
2023/06/06 13:51:54;;;;;;;;;;;;;;;;;;5071347;28;19920;-62
2023/06/06 13:54:20;;;;;;;;;;;;;;;;;;5054460;28;19930;-60
2023/06/06 13:56:49;;;;;;;;;;;;;;;;;;5072437;28;19988;-60
2023/06/06 13:59:16;;;;;;;;;;;;;;;;;;5071563;28;19925;-60
2023/06/06 14:01:46;;;;;;;;;;;;;;;;;;5072011;28;19924;-60
2023/06/06 14:04:12;;;;;;;;;;;;;;;;;;5072062;28;19924;-60
2023/06/06 14:06:38;;;;;;;;;;;;;;;;;;5071556;28;19920;-61
2023/06/06 14:09:07;;;;;;;;;;;;;;;;;;5072156;28;19958;-61
2023/06/06 14:11:34;;;;;;;;;;;;;;;;;;5071850;28;19920;-61
2023/06/06 14:14:01;;;;;;;;;;;;;;;;;;5071387;28;20363;-61
2023/06/06 14:16:27;;;;;;;;;;;;;;;;;;5071979;28;20278;-61
2023/06/06 14:18:54;;;;;;;;;;;;;;;;;;5037267;28;19932;-61
2023/06/06 14:21:28;;;;;;;;;;;;;;;;;;5071032;28;19977;-61
2023/06/06 14:23:54;;;;;;;;;;;;;;;;;;5071811;28;19928;-61
2023/06/06 14:26:20;;;;;;;;;;;;;;;;;;5071674;28;19924;-61
2023/06/06 14:28:46;;;;;;;;;;;;;;;;;;5073450;28;19924;-61
2023/06/06 14:31:12;;;;;;;;;;;;;;;;;;5091627;28;19920;-61
2023/06/06 14:33:38;;;;;;;;;;;;;;;;;;5091663;28;20370;-61
2023/06/06 14:36:04;;;;;;;;;;;;;;;;;;5091158;28;19943;-61
2023/06/06 14:38:33;;;;;;;;;;;;;;;;;;5091665;28;20500;-61
2023/06/06 14:40:59;;;;;;;;;;;;;;;;;;5084933;28;19973;-61
2023/06/06 14:43:25;;;;;;;;;;;;;;;;;;5070882;28;20371;-61
2023/06/06 14:45:51;;;;;;;;;;;;;;;;;;5071238;28;19920;-61
2023/06/06 14:48:17;;;;;;;;;;;;;;;;;;5071398;28;19932;-61
2023/06/06 14:50:43;;;;;;;;;;;;;;;;;;5085568;28;19947;-61
2023/06/06 14:53:09;;;;;;;;;;;;;;;;;;5090890;28;19920;-61
2023/06/06 14:55:35;;;;;;;;;;;;;;;;;;5090908;28;20015;-62
2023/06/06 14:58:02;;;;;;;;;;;;;;;;;;5091342;28;19944;-61
2023/06/06 15:00:28;;;;;;;;;;;;;;;;;;5090707;28;20459;-61
2023/06/06 15:02:54;;;;;;;;;;;;;;;;;;5072821;28;19920;-61
2023/06/06 15:05:20;;;;;;;;;;;;;;;;;;5091120;28;19994;-61
2023/06/06 15:07:46;;;;;;;;;;;;;;;;;;5090690;28;19930;-62
2023/06/06 15:10:12;;;;;;;;;;;;;;;;;;5091204;28;19924;-61
2023/06/06 15:12:37;;;;;;;;;;;;;;;;;;5090440;28;19928;-62
2023/06/06 15:15:03;;;;;;;;;;;;;;;;;;5090736;28;19926;-62
2023/06/06 15:17:29;;;;;;;;;;;;;;;;;;5090935;28;19966;-61
2023/06/06 15:19:56;;;;;;;;;;;;;;;;;;5090001;28;19920;-62
2023/06/06 15:22:23;;;;;;;;;;;;;;;;;;5089208;28;20015;-62
2023/06/06 15:24:51;;;;;;;;;;;;;;;;;;5089561;28;19931;-62
2023/06/06 15:27:17;;;;;;;;;;;;;;;;;;5069685;28;19963;-62
2023/06/06 15:29:46;;;;;;;;;;;;;;;;;;5079380;28;20350;-62
2023/06/06 15:32:12;;;;;;;;;;;;;;;;;;5089853;28;20380;-62
2023/06/06 15:34:38;;;;;;;;;;;;;;;;;;5090030;28;19979;-62
2023/06/06 15:37:04;;;;;;;;;;;;;;;;;;5090524;28;19971;-62
2023/06/06 15:39:30;;;;;;;;;;;;;;;;;;5090878;28;20015;-61
2023/06/06 15:41:56;;;;;;;;;;;;;;;;;;5090889;28;19920;-61
2023/06/06 15:44:22;;;;;;;;;;;;;;;;;;5089952;28;19924;-62
2023/06/06 15:46:47;;;;;;;;;;;;;;;;;;5090962;28;20801;-61
2023/06/06 15:49:14;;;;;;;;;;;;;;;;;;5090960;28;19920;-61
2023/06/06 15:51:40;;;;;;;;;;;;;;;;;;5090464;28;20023;-61
2023/06/06 15:54:06;;;;;;;;;;;;;;;;;;5090665;28;20023;-61
2023/06/06 15:56:31;;;;;;;;;;;;;;;;;;5090511;28;19974;-61
2023/06/06 15:59:00;;;;;;;;;;;;;;;;;;5090222;28;19950;-61
2023/06/06 16:01:26;;;;;;;;;;;;;;;;;;5090709;28;20450;-61
2023/06/06 16:03:52;;;;;;;;;;;;;;;;;;5090471;28;19963;-61
2023/06/06 16:06:18;;;;;;;;;;;;;;;;;;5090168;28;19978;-61
2023/06/06 16:08:44;;;;;;;;;;;;;;;;;;5094396;28;19959;-61
2023/06/06 16:11:10;;;;;;;;;;;;;;;;;;5094881;28;19946;-61
2023/06/06 16:13:36;;;;;;;;;;;;;;;;;;5094190;28;19969;-61
2023/06/06 16:16:02;;;;;;;;;;;;;;;;;;5094754;28;20011;-61
2023/06/06 16:18:28;;;;;;;;;;;;;;;;;;5094696;28;19925;-61
2023/06/06 16:20:55;;;;;;;;;;;;;;;;;;5094191;28;19924;-61
2023/06/06 16:23:20;;;;;;;;;;;;;;;;;;5094636;28;19924;-61
2023/06/06 16:25:47;;;;;;;;;;;;;;;;;;5086916;28;19931;-61
2023/06/06 16:28:13;;;;;;;;;;;;;;;;;;5073806;28;19920;-61
2023/06/06 16:30:40;;;;;;;;;;;;;;;;;;5092307;28;19931;-61
2023/06/06 16:33:06;;;;;;;;;;;;;;;;;;5094152;28;20007;-61
2023/06/06 16:35:31;;;;;;;;;;;;;;;;;;5093915;28;20015;-61
2023/06/06 16:37:57;;;;;;;;;;;;;;;;;;5094232;28;20022;-61
2023/06/06 16:40:23;;;;;;;;;;;;;;;;;;5094372;28;19931;-61